Time;durP1;ratioP1;P1;durP2;ratioP2;P2;SDS_P1;SDS_P2;PMS_P1;PMS_P2;Temp;Humidity;BMP_temperature;BMP_pressure;BME280_temperature;BME280_humidity;BME280_pressure;Samples;Min_cycle;Max_cycle;Signal;HPM_P1;HPM_P2
2024/01/29 00:00:49;;;;;;;12.05;6.93;;;7.00;99.90;;;;;;4932071;29;20406;-46
2024/01/29 00:03:14;;;;;;;10.82;6.45;;;7.10;99.90;;;;;;4932382;29;20039;-46
2024/01/29 00:05:40;;;;;;;12.05;7.03;;;7.10;99.90;;;;;;4932468;29;20024;-45
2024/01/29 00:08:06;;;;;;;11.55;6.55;;;7.10;99.90;;;;;;4935669;29;20115;-52
2024/01/29 00:10:31;;;;;;;11.95;6.63;;;7.00;99.90;;;;;;4935820;29;20039;-47
2024/01/29 00:12:57;;;;;;;11.65;6.80;;;7.00;99.90;;;;;;4935787;29;20200;-51
2024/01/29 00:15:23;;;;;;;11.85;6.20;;;7.00;99.90;;;;;;4935685;29;20498;-51
2024/01/29 00:17:48;;;;;;;12.90;6.10;;;7.00;99.90;;;;;;4935866;29;20535;-53
2024/01/29 00:20:16;;;;;;;11.15;5.93;;;7.10;99.90;;;;;;4935313;29;20103;-45
2024/01/29 00:22:41;;;;;;;9.45;5.47;;;7.10;99.90;;;;;;4935708;29;20027;-53
2024/01/29 00:25:08;;;;;;;10.70;6.30;;;7.10;99.90;;;;;;4935252;29;20047;-48
2024/01/29 00:27:34;;;;;;;13.02;6.32;;;7.10;99.90;;;;;;4935525;29;20182;-54
2024/01/29 00:30:01;;;;;;;10.05;5.90;;;7.10;99.90;;;;;;4935278;29;20031;-53
2024/01/29 00:32:28;;;;;;;13.13;6.43;;;7.10;99.90;;;;;;4935324;29;20038;-45
2024/01/29 00:34:54;;;;;;;14.68;6.78;;;7.10;99.90;;;;;;4935376;29;20079;-48
2024/01/29 00:37:22;;;;;;;11.93;6.68;;;7.20;99.90;;;;;;4935107;29;20024;-46
2024/01/29 00:39:49;;;;;;;11.55;6.65;;;7.20;99.90;;;;;;4935190;29;20031;-48
2024/01/29 00:42:14;;;;;;;13.07;6.82;;;7.30;99.90;;;;;;4935101;29;20506;-50
2024/01/29 00:44:41;;;;;;;14.90;6.50;;;7.30;99.90;;;;;;4935179;29;20280;-48
2024/01/29 00:47:06;;;;;;;10.27;6.10;;;7.30;99.90;;;;;;4935076;29;20113;-50
2024/01/29 00:49:32;;;;;;;10.77;6.72;;;7.30;99.90;;;;;;4935047;29;20035;-46
2024/01/29 00:51:59;;;;;;;13.07;7.10;;;7.20;99.90;;;;;;4933940;29;20028;-50
2024/01/29 00:54:24;;;;;;;14.02;7.25;;;7.20;99.90;;;;;;4934827;29;20451;-50
2024/01/29 00:56:50;;;;;;;9.93;6.05;;;7.10;99.90;;;;;;4935051;29;20063;-49
2024/01/29 00:59:16;;;;;;;9.27;5.70;;;7.00;99.90;;;;;;4934885;29;20427;-45
2024/01/29 01:01:41;;;;;;;12.77;6.30;;;6.90;99.90;;;;;;4934806;29;20407;-49
2024/01/29 01:04:08;;;;;;;9.25;5.22;;;6.90;99.90;;;;;;4934871;29;20028;-53
2024/01/29 01:06:33;;;;;;;9.82;5.43;;;6.80;99.90;;;;;;4934867;29;20040;-53
2024/01/29 01:08:59;;;;;;;10.50;6.03;;;6.90;99.90;;;;;;4934739;29;20039;-55
2024/01/29 01:11:25;;;;;;;11.15;5.53;;;6.90;99.90;;;;;;4934640;29;20039;-45
2024/01/29 01:13:53;;;;;;;11.98;6.68;;;7.00;99.90;;;;;;4934904;29;20484;-51
2024/01/29 01:16:19;;;;;;;12.70;6.00;;;7.10;99.90;;;;;;4934731;29;20043;-48
2024/01/29 01:18:44;;;;;;;12.30;6.95;;;7.30;99.90;;;;;;4933636;29;20028;-54
2024/01/29 01:21:10;;;;;;;8.23;5.55;;;7.40;99.90;;;;;;4934627;29;20064;-50
2024/01/29 01:23:36;;;;;;;14.75;6.07;;;7.40;99.90;;;;;;4934201;29;20038;-53
2024/01/29 01:26:02;;;;;;;9.88;5.65;;;7.40;99.90;;;;;;4934203;29;20051;-47
2024/01/29 01:28:28;;;;;;;9.48;5.07;;;7.50;99.90;;;;;;4934291;29;20685;-51
2024/01/29 01:30:54;;;;;;;11.63;6.00;;;7.60;99.90;;;;;;4934118;29;20383;-51
2024/01/29 01:33:20;;;;;;;12.82;5.90;;;7.60;99.90;;;;;;4934070;29;20083;-50
2024/01/29 01:35:45;;;;;;;9.35;5.32;;;7.70;99.90;;;;;;4933993;29;20020;-48
2024/01/29 01:38:11;;;;;;;14.32;7.18;;;7.80;99.90;;;;;;4933920;29;20027;-51
2024/01/29 01:40:37;;;;;;;10.05;5.82;;;7.90;99.90;;;;;;4934216;29;20106;-54
2024/01/29 01:43:31;;;;;;;12.35;6.80;;;8.00;99.90;;;;;;4933975;29;20015;-49
2024/01/29 01:46:14;;;;;;;11.57;6.43;;;8.10;99.90;;;;;;4932954;29;20054;-51
2024/01/29 01:48:40;;;;;;;9.10;5.75;;;8.10;99.90;;;;;;4933990;29;20031;-51
2024/01/29 01:51:06;;;;;;;11.13;6.13;;;8.20;99.90;;;;;;4934089;29;20394;-47
2024/01/29 01:53:34;;;;;;;10.85;6.47;;;8.20;99.90;;;;;;4933933;29;20028;-51
2024/01/29 01:56:00;;;;;;;10.13;6.30;;;8.20;99.90;;;;;;4933746;29;20475;-51
2024/01/29 01:58:30;;;;;;;12.88;6.47;;;8.10;99.90;;;;;;4933887;29;20057;-49
2024/01/29 02:00:56;;;;;;;;;;;8.10;99.90;;;;;;4933826;29;20024;-47
2024/01/29 02:03:21;;;;;;;13.85;6.50;;;8.10;99.90;;;;;;4933678;29;19981;-48
2024/01/29 02:05:47;;;;;;;12.70;6.50;;;8.10;99.90;;;;;;4933802;29;20059;-50
2024/01/29 02:08:15;;;;;;;14.20;7.22;;;8.00;99.90;;;;;;4933705;29;20031;-53
2024/01/29 02:10:41;;;;;;;13.57;6.53;;;8.10;99.90;;;;;;4933589;29;20035;-48
2024/01/29 02:13:14;;;;;;;9.02;5.57;;;8.10;99.90;;;;;;4933508;29;20026;-53
2024/01/29 02:15:40;;;;;;;15.55;6.20;;;8.00;99.90;;;;;;4933479;29;20035;-49
2024/01/29 02:18:06;;;;;;;14.38;7.13;;;8.00;99.90;;;;;;4933669;29;20090;-45
2024/01/29 02:20:33;;;;;;;13.63;7.13;;;8.10;99.90;;;;;;4933130;29;20075;-45
2024/01/29 02:22:59;;;;;;;13.77;6.97;;;8.20;99.90;;;;;;4933317;29;20020;-47
2024/01/29 02:25:24;;;;;;;17.23;7.45;;;8.20;99.90;;;;;;4932778;29;20055;-53
2024/01/29 02:27:50;;;;;;;13.38;6.88;;;8.20;99.90;;;;;;4932795;29;20411;-47
2024/01/29 02:30:16;;;;;;;13.00;7.18;;;8.20;99.90;;;;;;4932372;29;20443;-53
2024/01/29 02:32:41;;;;;;;15.02;6.65;;;8.20;99.90;;;;;;4933088;29;20156;-52
2024/01/29 02:35:07;;;;;;;12.82;6.60;;;8.10;99.90;;;;;;4932965;29;20023;-49
2024/01/29 02:37:34;;;;;;;12.65;6.78;;;8.10;99.90;;;;;;4933043;29;20479;-53
2024/01/29 02:40:00;;;;;;;10.95;6.30;;;8.10;99.90;;;;;;4932764;29;20027;-49
2024/01/29 02:42:26;;;;;;;14.15;7.38;;;8.10;99.90;;;;;;4932500;29;20104;-55
2024/01/29 02:44:51;;;;;;;11.02;6.43;;;8.10;99.90;;;;;;4932072;29;20615;-49
2024/01/29 02:47:17;;;;;;;13.82;7.15;;;8.10;99.90;;;;;;4932259;29;20501;-52
2024/01/29 02:49:43;;;;;;;12.25;6.57;;;8.00;99.90;;;;;;4933307;29;20031;-48
2024/01/29 02:52:10;;;;;;;12.20;6.30;;;8.10;99.90;;;;;;4933246;29;20031;-49
2024/01/29 02:54:35;;;;;;;14.05;6.68;;;8.10;99.90;;;;;;4932966;29;20020;-56
2024/01/29 02:57:01;;;;;;;12.07;6.78;;;8.10;99.90;;;;;;4933119;29;20471;-48
2024/01/29 02:59:26;;;;;;;13.25;6.72;;;8.10;99.90;;;;;;4931222;29;20020;-49
2024/01/29 03:01:55;;;;;;;12.55;7.30;;;8.10;99.90;;;;;;4932076;29;20450;-51
2024/01/29 03:04:21;;;;;;;13.65;7.28;;;8.00;99.90;;;;;;4933092;29;20032;-45
2024/01/29 03:06:47;;;;;;;14.80;7.38;;;8.00;99.90;;;;;;4932064;29;20484;-49
2024/01/29 03:09:14;;;;;;;16.95;7.70;;;8.10;99.90;;;;;;4932196;29;20499;-54
2024/01/29 03:11:40;;;;;;;14.52;7.38;;;8.30;99.90;;;;;;4932763;29;20059;-54
2024/01/29 03:14:05;;;;;;;11.98;6.95;;;8.30;99.90;;;;;;4933164;29;20110;-54
2024/01/29 03:16:31;;;;;;;19.42;8.63;;;8.40;99.90;;;;;;4932695;29;20492;-51
2024/01/29 03:18:57;;;;;;;17.02;8.23;;;8.60;99.90;;;;;;4931992;29;20110;-52
2024/01/29 03:21:23;;;;;;;15.18;7.97;;;8.70;99.90;;;;;;4932648;29;20479;-52
2024/01/29 03:23:48;;;;;;;19.00;8.02;;;8.80;99.90;;;;;;4932697;29;20054;-47
2024/01/29 03:26:14;;;;;;;13.82;7.68;;;8.90;99.90;;;;;;4932264;29;20086;-55
2024/01/29 03:28:40;;;;;;;15.02;7.43;;;8.90;99.90;;;;;;4932448;29;20055;-48
2024/01/29 03:31:06;;;;;;;15.70;8.27;;;8.90;99.90;;;;;;4932376;29;20044;-48
2024/01/29 03:33:32;;;;;;;17.42;8.85;;;9.00;99.90;;;;;;4932554;29;20020;-47
2024/01/29 03:35:57;;;;;;;13.02;8.05;;;9.00;99.90;;;;;;4932304;29;20495;-55
2024/01/29 03:38:23;;;;;;;16.88;7.55;;;9.00;99.90;;;;;;4932164;29;20020;-56
2024/01/29 03:40:49;;;;;;;11.25;7.55;;;9.00;99.90;;;;;;4932647;29;20495;-48
2024/01/29 03:43:14;;;;;;;13.68;6.93;;;8.90;99.90;;;;;;4935948;29;20040;-53
2024/01/29 03:45:40;;;;;;;14.82;6.90;;;8.90;99.90;;;;;;4936048;29;20074;-49
2024/01/29 03:48:06;;;;;;;13.45;7.03;;;8.90;99.90;;;;;;4935944;29;20056;-49
2024/01/29 03:50:31;;;;;;;12.40;8.05;;;8.90;99.90;;;;;;4935724;29;20026;-47
2024/01/29 03:52:57;;;;;;;14.05;7.22;;;8.90;99.90;;;;;;4936096;29;20078;-50
2024/01/29 03:55:23;;;;;;;13.52;7.18;;;8.90;99.90;;;;;;4935541;29;20027;-51
2024/01/29 03:57:48;;;;;;;12.40;7.43;;;8.90;99.90;;;;;;4935528;29;20020;-45
2024/01/29 04:00:18;;;;;;;15.20;7.38;;;8.90;99.90;;;;;;4934828;29;20499;-52
2024/01/29 04:02:46;;;;;;;11.63;6.70;;;8.90;99.90;;;;;;4934974;29;20016;-54
2024/01/29 04:05:12;;;;;;;13.27;7.15;;;8.90;99.90;;;;;;4935412;29;20133;-55
2024/01/29 04:07:38;;;;;;;19.15;8.07;;;8.90;99.90;;;;;;4935159;29;20032;-53
2024/01/29 04:10:04;;;;;;;18.25;7.88;;;8.90;99.90;;;;;;4936006;29;20016;-53
2024/01/29 04:12:29;;;;;;;17.25;7.60;;;9.00;99.90;;;;;;4935297;29;20118;-51
2024/01/29 04:14:55;;;;;;;15.80;7.93;;;9.10;99.90;;;;;;4935426;29;20488;-51
2024/01/29 04:17:20;;;;;;;10.57;7.22;;;9.10;99.90;;;;;;4935363;29;20435;-53
2024/01/29 04:19:46;;;;;;;15.80;8.02;;;9.10;99.90;;;;;;4935658;29;20035;-54
2024/01/29 04:22:12;;;;;;;15.70;7.35;;;9.20;99.90;;;;;;4935375;29;20031;-54
2024/01/29 04:24:37;;;;;;;13.55;7.38;;;9.20;99.90;;;;;;4935307;29;20034;-49
2024/01/29 04:27:03;;;;;;;16.25;7.72;;;9.20;99.90;;;;;;4934984;29;20095;-50
2024/01/29 04:29:29;;;;;;;11.50;6.80;;;9.20;99.90;;;;;;4935019;29;20039;-53
2024/01/29 04:31:54;;;;;;;15.23;7.28;;;9.30;99.90;;;;;;4934784;29;20042;-52
2024/01/29 04:34:20;;;;;;;17.95;7.35;;;9.30;99.90;;;;;;4935210;29;20067;-49
2024/01/29 04:36:46;;;;;;;15.05;8.02;;;9.30;99.90;;;;;;4934944;29;20035;-47
2024/01/29 04:39:11;;;;;;;20.60;8.18;;;9.30;99.90;;;;;;4934551;29;20020;-54
2024/01/29 04:41:37;;;;;;;14.05;7.55;;;9.30;99.90;;;;;;4926195;29;20032;-50
2024/01/29 04:44:03;;;;;;;18.45;8.68;;;9.30;99.90;;;;;;4934830;29;20023;-57
2024/01/29 04:46:28;;;;;;;16.85;7.75;;;9.30;99.90;;;;;;4934028;29;20110;-50
2024/01/29 04:48:54;;;;;;;16.23;7.80;;;9.30;99.90;;;;;;4934181;29;20020;-55
2024/01/29 04:51:21;;;;;;;15.98;8.30;;;9.30;99.90;;;;;;4934910;29;20452;-52
2024/01/29 04:53:47;;;;;;;14.05;7.65;;;9.30;99.90;;;;;;4934251;29;20031;-51
2024/01/29 04:56:13;;;;;;;15.20;7.47;;;9.40;99.90;;;;;;4934780;29;20024;-52
2024/01/29 04:58:39;;;;;;;16.75;7.45;;;9.30;99.90;;;;;;4934675;29;20016;-50
2024/01/29 05:01:04;;;;;;;12.13;7.97;;;9.30;99.90;;;;;;4933298;29;20035;-50
2024/01/29 05:03:30;;;;;;;16.02;8.45;;;9.40;99.90;;;;;;4934480;29;20039;-54
2024/01/29 05:05:56;;;;;;;19.30;8.60;;;9.40;99.90;;;;;;4934731;29;20119;-48
2024/01/29 05:08:22;;;;;;;14.20;7.97;;;9.40;99.90;;;;;;4934915;29;20044;-53
2024/01/29 05:10:48;;;;;;;14.82;7.88;;;9.40;99.90;;;;;;4934733;29;20020;-54
2024/01/29 05:13:15;;;;;;;17.35;8.23;;;9.50;99.90;;;;;;4934703;29;20106;-48
2024/01/29 05:15:41;;;;;;;15.57;8.15;;;9.50;99.90;;;;;;4933174;29;20499;-54
2024/01/29 05:18:07;;;;;;;20.75;9.10;;;9.40;99.90;;;;;;4934554;29;20024;-52
2024/01/29 05:20:32;;;;;;;15.85;8.60;;;9.50;99.90;;;;;;4934567;29;20502;-51
2024/01/29 05:22:58;;;;;;;16.63;8.63;;;9.50;99.90;;;;;;4934555;29;20487;-56
2024/01/29 05:25:24;;;;;;;14.20;8.40;;;9.50;99.90;;;;;;4934381;29;20127;-53
2024/01/29 05:27:50;;;;;;;17.00;8.05;;;9.50;99.90;;;;;;4934584;29;20443;-50
2024/01/29 05:30:16;;;;;;;15.63;7.88;;;9.50;99.90;;;;;;4934391;29;20031;-54
2024/01/29 05:32:41;;;;;;;18.30;9.63;;;9.50;99.90;;;;;;4934355;29;20573;-51
2024/01/29 05:35:09;;;;;;;12.20;8.30;;;9.60;99.90;;;;;;4934205;29;20134;-54
2024/01/29 05:37:34;;;;;;;16.90;8.85;;;9.50;99.90;;;;;;4934127;29;20035;-49
2024/01/29 05:40:01;;;;;;;15.95;8.25;;;9.50;99.90;;;;;;4934130;29;20464;-54
2024/01/29 05:42:26;;;;;;;15.98;9.18;;;9.50;99.90;;;;;;4934393;29;20507;-54
2024/01/29 05:44:52;;;;;;;21.00;9.82;;;9.60;99.90;;;;;;4933740;29;20054;-48
2024/01/29 05:47:18;;;;;;;17.92;9.77;;;9.60;99.90;;;;;;4934002;29;20040;-54
2024/01/29 05:49:44;;;;;;;21.50;11.05;;;9.60;99.90;;;;;;4933947;29;20016;-46
2024/01/29 05:52:09;;;;;;;22.20;10.30;;;9.60;99.90;;;;;;4927516;29;20388;-49
2024/01/29 05:54:35;;;;;;;21.58;9.35;;;9.60;99.90;;;;;;4929029;29;20523;-54
2024/01/29 05:57:01;;;;;;;19.35;9.35;;;9.70;99.90;;;;;;4933932;29;20094;-50
2024/01/29 05:59:26;;;;;;;17.00;9.70;;;9.70;99.90;;;;;;4934028;29;20026;-55
2024/01/29 06:01:52;;;;;;;18.83;10.48;;;9.70;99.90;;;;;;4933490;29;20106;-54
2024/01/29 06:04:17;;;;;;;24.77;10.52;;;9.70;99.90;;;;;;4933401;29;20020;-47
2024/01/29 06:06:43;;;;;;;19.90;9.70;;;9.80;99.90;;;;;;4933676;29;20203;-53
2024/01/29 06:09:10;;;;;;;27.48;10.30;;;9.70;99.90;;;;;;4933563;29;20086;-50
2024/01/29 06:11:38;;;;;;;21.10;9.93;;;9.70;99.90;;;;;;4933565;29;20063;-52
2024/01/29 06:14:04;;;;;;;19.10;9.32;;;9.70;99.90;;;;;;4933577;29;20031;-45
2024/01/29 06:16:30;;;;;;;17.02;9.82;;;9.70;99.90;;;;;;4933462;29;20032;-48
2024/01/29 06:18:56;;;;;;;18.85;10.15;;;9.70;99.90;;;;;;4933402;29;20027;-46
2024/01/29 06:21:22;;;;;;;20.77;10.00;;;9.70;99.90;;;;;;4933420;29;20031;-48
2024/01/29 06:23:48;;;;;;;19.35;10.23;;;9.70;99.90;;;;;;4932979;29;20032;-47
2024/01/29 06:26:14;;;;;;;23.73;9.82;;;9.70;99.90;;;;;;4932996;29;20550;-50
2024/01/29 06:28:43;;;;;;;19.00;9.68;;;9.70;99.90;;;;;;4933235;29;20035;-52
2024/01/29 06:31:09;;;;;;;24.45;11.23;;;9.80;99.90;;;;;;4933057;29;20035;-55
2024/01/29 06:33:39;;;;;;;20.05;9.75;;;9.80;99.90;;;;;;4921963;29;20039;-49
2024/01/29 06:36:06;;;;;;;22.95;9.88;;;9.80;99.90;;;;;;4916543;29;20028;-49
2024/01/29 06:38:31;;;;;;;22.33;11.48;;;9.80;99.90;;;;;;4932423;29;20038;-54
2024/01/29 06:40:58;;;;;;;25.80;10.48;;;9.80;99.90;;;;;;4926413;29;20023;-52
2024/01/29 06:43:24;;;;;;;27.55;11.43;;;9.80;99.90;;;;;;4930500;29;20036;-49
2024/01/29 06:45:50;;;;;;;25.65;11.88;;;9.80;99.90;;;;;;4922570;29;20106;-53
2024/01/29 06:48:15;;;;;;;24.23;10.98;;;9.80;99.90;;;;;;4929433;29;20039;-45
2024/01/29 06:50:41;;;;;;;28.33;11.95;;;9.80;99.90;;;;;;4923341;29;20020;-51
2024/01/29 06:53:06;;;;;;;24.10;11.15;;;9.80;99.90;;;;;;4920449;29;20571;-56
2024/01/29 06:55:32;;;;;;;25.13;11.68;;;9.80;99.90;;;;;;4920103;29;20032;-52
2024/01/29 06:57:58;;;;;;;30.00;12.20;;;9.80;99.90;;;;;;4918975;29;20032;-55
2024/01/29 07:00:24;;;;;;;30.77;11.80;;;9.80;99.90;;;;;;4920466;29;20440;-55
2024/01/29 07:02:49;;;;;;;25.05;12.02;;;9.80;99.90;;;;;;4916514;29;20032;-48
2024/01/29 07:05:16;;;;;;;24.25;12.15;;;9.80;99.90;;;;;;4916733;29;20029;-51
2024/01/29 07:07:42;;;;;;;36.45;13.43;;;9.90;99.90;;;;;;4919857;29;20039;-49
2024/01/29 07:10:08;;;;;;;34.33;13.00;;;9.80;99.90;;;;;;4924478;29;20360;-53
2024/01/29 07:12:33;;;;;;;30.77;12.75;;;9.90;99.90;;;;;;4930459;29;20032;-51
2024/01/29 07:14:59;;;;;;;29.00;13.48;;;9.90;99.90;;;;;;4916909;29;20027;-50
2024/01/29 07:17:25;;;;;;;27.92;12.80;;;9.90;99.90;;;;;;4927792;29;20055;-50
2024/01/29 07:19:52;;;;;;;31.38;11.48;;;9.90;99.90;;;;;;4932085;29;20431;-52
2024/01/29 07:22:19;;;;;;;27.50;12.10;;;9.90;99.90;;;;;;4934688;29;20115;-45
2024/01/29 07:24:48;;;;;;;24.58;10.82;;;9.90;99.90;;;;;;4935306;29;20107;-54
2024/01/29 07:27:17;;;;;;;33.28;13.10;;;9.90;99.90;;;;;;4933471;29;20035;-45
2024/01/29 07:29:43;;;;;;;31.80;12.87;;;9.90;99.90;;;;;;4935104;29;20463;-46
2024/01/29 07:32:09;;;;;;;27.45;12.57;;;9.90;99.90;;;;;;4918056;29;20397;-45
2024/01/29 07:34:36;;;;;;;30.02;12.07;;;9.90;99.90;;;;;;4915909;29;20028;-52
2024/01/29 07:37:02;;;;;;;34.10;12.07;;;9.80;99.90;;;;;;4916098;29;20460;-50
2024/01/29 07:39:28;;;;;;;34.78;12.25;;;9.80;99.90;;;;;;4916229;29;20067;-47
2024/01/29 07:41:54;;;;;;;30.98;11.73;;;9.80;99.90;;;;;;4925920;29;20443;-48
2024/01/29 07:44:20;;;;;;;27.10;11.50;;;9.80;99.90;;;;;;4930666;29;20516;-54
2024/01/29 07:46:46;;;;;;;25.92;10.45;;;9.80;99.90;;;;;;4930878;29;20082;-47
2024/01/29 07:49:12;;;;;;;28.67;10.90;;;9.80;99.90;;;;;;4928778;29;20444;-54
2024/01/29 07:51:41;;;;;;;35.25;11.55;;;9.80;99.90;;;;;;4925437;29;20030;-45
2024/01/29 07:54:09;;;;;;;27.30;11.18;;;9.80;99.90;;;;;;4920378;29;20053;-56
2024/01/29 07:56:35;;;;;;;26.15;10.02;;;9.80;99.90;;;;;;4922230;29;20024;-51
2024/01/29 07:59:01;;;;;;;25.42;10.18;;;9.80;99.90;;;;;;4920638;29;20032;-53
2024/01/29 08:01:27;;;;;;;20.75;9.52;;;9.80;99.90;;;;;;4920630;29;20159;-47
2024/01/29 08:03:53;;;;;;;30.30;9.65;;;9.80;99.90;;;;;;4922481;29;20115;-52
2024/01/29 08:06:18;;;;;;;30.83;10.27;;;9.80;99.90;;;;;;4921144;29;20035;-49
2024/01/29 08:08:44;;;;;;;22.75;9.50;;;9.80;99.90;;;;;;4925133;29;20491;-51
2024/01/29 08:11:10;;;;;;;31.77;10.02;;;9.80;99.90;;;;;;4919593;29;20096;-51
2024/01/29 08:13:36;;;;;;;29.08;8.90;;;9.80;99.90;;;;;;4919743;29;20403;-49
2024/01/29 08:16:01;;;;;;;32.08;8.55;;;9.80;99.90;;;;;;4932780;29;20083;-49
2024/01/29 08:18:27;;;;;;;21.77;9.13;;;9.80;99.90;;;;;;4930135;29;20124;-49
2024/01/29 08:20:53;;;;;;;26.75;10.00;;;9.80;99.90;;;;;;4926493;29;20494;-54
2024/01/29 08:23:18;;;;;;;44.00;10.77;;;9.80;99.90;;;;;;4916770;29;20119;-56
2024/01/29 08:25:44;;;;;;;27.90;9.43;;;9.80;99.90;;;;;;4921369;29;20147;-49
2024/01/29 08:28:11;;;;;;;26.65;9.52;;;9.80;99.90;;;;;;4924833;29;20142;-53
2024/01/29 08:30:37;;;;;;;25.50;9.60;;;9.80;99.90;;;;;;4925458;29;20534;-52
2024/01/29 08:33:03;;;;;;;25.55;10.70;;;9.80;99.90;;;;;;4926758;29;20035;-50
2024/01/29 08:35:28;;;;;;;27.25;9.70;;;9.80;99.90;;;;;;4924775;29;20095;-49
2024/01/29 08:37:54;;;;;;;23.77;10.18;;;9.80;99.90;;;;;;4928863;29;20020;-49
2024/01/29 08:40:20;;;;;;;34.17;9.70;;;9.80;99.90;;;;;;4916325;29;20036;-47
2024/01/29 08:42:47;;;;;;;37.50;9.95;;;9.90;99.90;;;;;;4921682;29;20344;-48
2024/01/29 08:45:19;;;;;;;35.30;9.98;;;9.80;99.90;;;;;;4901660;29;20108;-51
2024/01/29 08:47:44;;;;;;;31.77;10.50;;;9.80;99.90;;;;;;4930093;29;20110;-50
2024/01/29 08:50:10;;;;;;;32.35;9.32;;;9.90;99.90;;;;;;4934864;29;20111;-53
2024/01/29 08:52:36;;;;;;;28.17;9.00;;;9.90;99.90;;;;;;4933483;29;20027;-48
2024/01/29 08:55:02;;;;;;;32.75;10.00;;;9.80;99.90;;;;;;4933371;29;20051;-54
2024/01/29 08:57:28;;;;;;;28.83;8.90;;;9.80;99.90;;;;;;4934836;29;20032;-51
2024/01/29 08:59:54;;;;;;;22.73;8.10;;;9.80;99.90;;;;;;4918840;29;20052;-49
2024/01/29 09:02:19;;;;;;;21.95;8.65;;;9.80;99.90;;;;;;4925069;29;20515;-51
2024/01/29 09:04:45;;;;;;;26.77;8.27;;;9.80;99.90;;;;;;4927080;29;20024;-51
2024/01/29 09:07:11;;;;;;;23.38;7.35;;;9.80;99.90;;;;;;4920408;29;20067;-51
2024/01/29 09:09:36;;;;;;;30.20;7.15;;;9.80;99.90;;;;;;4926117;29;20030;-46
2024/01/29 09:12:02;;;;;;;15.43;6.78;;;9.70;99.90;;;;;;4929455;29;20122;-48
2024/01/29 09:14:28;;;;;;;16.40;6.57;;;9.70;99.90;;;;;;4932442;29;20028;-52
2024/01/29 09:16:53;;;;;;;22.45;7.10;;;9.70;99.90;;;;;;4930184;29;20039;-55
2024/01/29 09:19:21;;;;;;;19.27;6.10;;;9.70;99.90;;;;;;4924398;29;20024;-52
2024/01/29 09:21:48;;;;;;;26.35;6.70;;;9.70;99.90;;;;;;4927468;29;20035;-53
2024/01/29 09:24:14;;;;;;;13.75;6.47;;;9.70;99.90;;;;;;4934476;29;20599;-48
2024/01/29 09:26:40;;;;;;;20.65;7.10;;;9.70;99.90;;;;;;4925089;29;20131;-53
2024/01/29 09:29:06;;;;;;;14.02;6.15;;;9.70;99.90;;;;;;4916376;29;20032;-46
2024/01/29 09:31:32;;;;;;;17.27;6.10;;;9.70;99.90;;;;;;4916394;29;20024;-53
2024/01/29 09:33:58;;;;;;;16.38;6.50;;;9.70;99.90;;;;;;4915921;29;20484;-49
2024/01/29 09:36:23;;;;;;;15.15;6.40;;;9.70;99.90;;;;;;4916479;29;20039;-48
2024/01/29 09:38:49;;;;;;;22.40;6.68;;;9.70;99.90;;;;;;4914957;29;20020;-48
2024/01/29 09:41:15;;;;;;;26.27;6.47;;;9.80;99.90;;;;;;4916386;29;20405;-58
2024/01/29 09:43:43;;;;;;;18.92;6.18;;;9.80;99.90;;;;;;4915774;29;20408;-50
2024/01/29 09:46:13;;;;;;;17.63;6.60;;;9.80;99.90;;;;;;4916040;29;20084;-47
2024/01/29 09:48:41;;;;;;;41.38;6.88;;;9.80;99.90;;;;;;4915727;29;20267;-54
2024/01/29 09:51:07;;;;;;;16.48;6.03;;;9.80;99.90;;;;;;4928414;29;20020;-49
2024/01/29 09:53:35;;;;;;;18.63;7.53;;;9.70;99.90;;;;;;4934082;29;20067;-47
2024/01/29 09:56:01;;;;;;;35.85;7.38;;;9.80;99.90;;;;;;4933844;29;20023;-51
2024/01/29 09:58:26;;;;;;;18.65;7.13;;;9.80;99.90;;;;;;4933644;29;20107;-49
2024/01/29 10:00:54;;;;;;;25.67;7.18;;;9.80;99.90;;;;;;4923166;29;20487;-47
2024/01/29 10:03:29;;;;;;;21.15;6.60;;;9.80;99.90;;;;;;4922787;29;20028;-54
2024/01/29 10:05:56;;;;;;;35.25;6.93;;;9.80;99.90;;;;;;4910846;29;20028;-51
2024/01/29 10:08:27;;;;;;;27.35;6.82;;;9.80;99.90;;;;;;4931291;29;20196;-48
2024/01/29 10:10:54;;;;;;;15.13;6.82;;;9.80;99.90;;;;;;4933444;29;20028;-52
2024/01/29 10:13:20;;;;;;;12.90;6.70;;;9.90;99.90;;;;;;4933511;29;20113;-46
2024/01/29 10:15:46;;;;;;;25.83;6.93;;;9.90;99.90;;;;;;4933372;29;20106;-46
2024/01/29 10:18:13;;;;;;;23.50;7.43;;;9.90;99.90;;;;;;4933308;29;20126;-45
2024/01/29 10:20:39;;;;;;;16.20;7.07;;;9.90;99.90;;;;;;4931034;29;20031;-45
2024/01/29 10:23:05;;;;;;;18.67;7.53;;;9.90;99.90;;;;;;4919528;29;20032;-45
2024/01/29 10:25:34;;;;;;;20.52;7.28;;;9.90;99.90;;;;;;4933073;29;20055;-42
2024/01/29 10:28:09;;;;;;;14.38;6.55;;;9.90;99.90;;;;;;4933481;29;20044;-42
2024/01/29 10:30:35;;;;;;;16.92;6.75;;;9.90;99.90;;;;;;4933405;29;20027;-45
2024/01/29 10:33:01;;;;;;;21.30;6.53;;;9.90;99.90;;;;;;4933178;29;20070;-45
2024/01/29 10:35:26;;;;;;;21.77;7.03;;;9.90;99.90;;;;;;4933209;29;20042;-48
2024/01/29 10:38:00;;;;;;;22.55;7.10;;;9.90;99.90;;;;;;4931629;29;20036;-53
2024/01/29 10:40:28;;;;;;;15.70;7.07;;;9.90;99.90;;;;;;4922598;29;20145;-51
2024/01/29 10:42:56;;;;;;;18.50;6.93;;;9.90;99.90;;;;;;4913891;29;20518;-47
2024/01/29 10:45:23;;;;;;;34.33;7.32;;;9.90;99.90;;;;;;4914542;29;20060;-53
2024/01/29 10:47:53;;;;;;;22.67;7.00;;;9.90;99.90;;;;;;4914348;29;20043;-51
2024/01/29 10:50:20;;;;;;;14.98;6.20;;;9.80;99.90;;;;;;4921084;29;20023;-45
2024/01/29 10:52:48;;;;;;;19.73;6.75;;;9.80;99.90;;;;;;4933066;29;20050;-47
2024/01/29 10:55:15;;;;;;;16.35;7.10;;;9.70;99.90;;;;;;4933099;29;20035;-44
2024/01/29 10:57:48;;;;;;;15.95;8.20;;;9.70;99.90;;;;;;4933139;29;20710;-49
2024/01/29 11:00:19;;;;;;;13.52;7.65;;;9.70;99.90;;;;;;4931510;29;20032;-49
2024/01/29 11:02:46;;;;;;;16.75;7.53;;;9.70;99.90;;;;;;4932774;29;20504;-45
2024/01/29 11:05:13;;;;;;;17.73;6.75;;;9.80;99.90;;;;;;4906533;29;20066;-45
2024/01/29 11:07:41;;;;;;;18.27;7.22;;;9.80;99.90;;;;;;4933033;29;20043;-48
2024/01/29 11:10:18;;;;;;;25.70;7.53;;;9.90;99.90;;;;;;4932521;29;20110;-50
2024/01/29 11:12:45;;;;;;;17.52;6.07;;;9.90;99.90;;;;;;4932870;29;20028;-50
2024/01/29 11:15:11;;;;;;;21.05;6.40;;;9.90;99.90;;;;;;4932892;29;20376;-45
2024/01/29 11:17:38;;;;;;;16.40;7.18;;;9.90;99.90;;;;;;4926104;29;20038;-48
2024/01/29 11:20:14;;;;;;;32.35;6.72;;;9.90;99.90;;;;;;4933307;29;20060;-46
2024/01/29 11:22:41;;;;;;;13.45;6.00;;;9.90;99.90;;;;;;4933015;29;20031;-44
2024/01/29 11:25:14;;;;;;;17.98;6.57;;;9.90;99.90;;;;;;4932846;29;20036;-45
2024/01/29 11:27:44;;;;;;;16.65;7.00;;;9.90;99.90;;;;;;4932785;29;20047;-44
2024/01/29 11:30:16;;;;;;;14.13;6.25;;;10.00;99.90;;;;;;4932945;29;20111;-52
2024/01/29 11:32:42;;;;;;;22.15;7.03;;;10.00;99.90;;;;;;4932832;29;20024;-52
2024/01/29 11:35:21;;;;;;;26.83;7.63;;;10.00;99.90;;;;;;4932673;29;20032;-51
2024/01/29 11:37:50;;;;;;;;;;;10.00;99.90;;;;;;4933159;29;20035;-47
2024/01/29 11:40:40;;;;;;;20.73;8.57;;;10.00;99.90;;;;;;4932485;29;19907;-51
2024/01/29 11:43:16;;;;;;;22.55;8.30;;;10.00;99.90;;;;;;4924043;29;20306;-50
2024/01/29 11:45:45;;;;;;;22.45;8.27;;;10.00;99.90;;;;;;4929691;29;20056;-49
2024/01/29 11:48:11;;;;;;;16.33;8.02;;;10.00;99.90;;;;;;4926564;29;20064;-46
2024/01/29 11:50:39;;;;;;;17.65;7.85;;;10.00;99.90;;;;;;4929933;29;20036;-47
2024/01/29 11:53:07;;;;;;;26.85;8.65;;;9.90;99.90;;;;;;4915254;29;20032;-43
2024/01/29 11:55:33;;;;;;;21.48;7.93;;;9.90;99.90;;;;;;4932800;29;20028;-50
2024/01/29 11:57:59;;;;;;;17.05;7.68;;;10.00;99.90;;;;;;4932500;29;20082;-45
2024/01/29 12:00:24;;;;;;;24.60;8.25;;;10.00;99.90;;;;;;4932769;29;20044;-50
2024/01/29 12:02:50;;;;;;;18.75;8.48;;;10.00;99.90;;;;;;4926349;29;20028;-47
2024/01/29 12:05:17;;;;;;;19.75;8.73;;;10.00;99.90;;;;;;4935911;29;20039;-47
2024/01/29 12:07:47;;;;;;;17.08;8.02;;;10.00;99.90;;;;;;4936099;29;20708;-50
2024/01/29 12:10:14;;;;;;;29.40;7.70;;;10.00;99.90;;;;;;4935911;29;20031;-47
2024/01/29 12:12:39;;;;;;;18.75;8.63;;;10.00;99.90;;;;;;4936150;29;20059;-51
2024/01/29 12:15:08;;;;;;;19.33;7.70;;;9.90;99.90;;;;;;4935901;29;20082;-46
2024/01/29 12:17:38;;;;;;;23.50;6.72;;;9.90;99.90;;;;;;4936112;29;20028;-48
2024/01/29 12:20:05;;;;;;;22.35;8.63;;;9.90;99.90;;;;;;4935770;29;20050;-45
2024/01/29 12:22:31;;;;;;;19.05;8.07;;;9.90;99.90;;;;;;4935904;29;20034;-51
2024/01/29 12:24:57;;;;;;;16.02;8.68;;;9.80;99.90;;;;;;4935484;29;20487;-49
2024/01/29 12:27:23;;;;;;;20.42;8.75;;;9.90;99.90;;;;;;4935757;29;20083;-52
2024/01/29 12:29:50;;;;;;;16.90;8.68;;;9.90;99.90;;;;;;4935665;29;20035;-51
2024/01/29 12:32:20;;;;;;;21.95;9.57;;;10.00;99.90;;;;;;4935631;29;20076;-49
2024/01/29 12:34:50;;;;;;;19.98;8.60;;;10.10;99.90;;;;;;4935598;29;20579;-47
2024/01/29 12:37:21;;;;;;;21.65;8.93;;;10.20;99.90;;;;;;4934193;29;20423;-48
2024/01/29 12:39:54;;;;;;;20.95;10.38;;;10.30;99.90;;;;;;4934323;29;20603;-47
2024/01/29 12:42:20;;;;;;;21.27;10.20;;;10.40;99.90;;;;;;4935191;29;20611;-47